createdAt,value
2019-05-03T00:10:19.401Z,65.86
2019-05-03T00:25:26.069Z,65.70
2019-05-03T00:40:32.979Z,65.78
2019-05-03T00:55:41.882Z,65.46
2019-05-03T01:10:48.503Z,66.04
2019-05-03T01:25:56.123Z,66.12
2019-05-03T01:41:03.052Z,66.35
2019-05-03T01:56:11.722Z,67.08
2019-05-03T02:11:18.190Z,67.79
2019-05-03T02:26:25.405Z,67.66
2019-05-03T02:41:34.119Z,67.27
2019-05-03T02:56:46.023Z,67.29
2019-05-03T03:11:55.862Z,67.10
2019-05-03T03:27:05.801Z,67.39
2019-05-03T03:42:16.322Z,67.81
2019-05-03T03:57:25.662Z,67.96
2019-05-03T04:12:35.053Z,68.46
2019-05-03T04:27:41.899Z,68.22
2019-05-03T04:42:48.810Z,68.48
2019-05-03T04:57:56.238Z,68.15
2019-05-03T05:13:05.386Z,68.63
2019-05-03T05:28:30.184Z,68.03
2019-05-03T05:43:37.407Z,67.74
2019-05-03T05:58:46.002Z,66.90
2019-05-03T06:14:05.053Z,66.74
2019-05-03T06:29:15.024Z,65.46
2019-05-03T06:44:37.324Z,63.84
2019-05-03T06:59:56.508Z,62.10
2019-05-03T07:15:05.140Z,59.85
2019-05-03T07:30:12.753Z,59.34
2019-05-03T07:45:20.691Z,59.71
2019-05-03T08:00:27.588Z,59.21
2019-05-03T08:15:36.139Z,60.63
2019-05-03T08:30:50.593Z,60.77
2019-05-03T08:45:57.047Z,60.64
2019-05-03T09:01:07.409Z,61.64
2019-05-03T09:16:15.329Z,62.04
2019-05-03T09:31:21.858Z,61.61
2019-05-03T09:46:29.671Z,61.71
2019-05-03T10:01:36.486Z,61.70
2019-05-03T10:16:51.850Z,60.83
2019-05-03T10:32:00.551Z,60.76
2019-05-03T10:47:08.452Z,61.87
2019-05-03T11:02:30.929Z,60.08
2019-05-03T11:17:38.398Z,59.55
2019-05-03T11:32:48.000Z,57.77
2019-05-03T11:47:55.849Z,56.62
2019-05-03T12:03:07.395Z,56.64
2019-05-03T12:18:16.241Z,55.79
2019-05-03T12:33:26.040Z,55.21
2019-05-03T12:48:32.603Z,55.43
2019-05-03T13:03:42.105Z,55.19
2019-05-03T13:18:49.420Z,53.86
2019-05-03T13:33:56.412Z,56.38
2019-05-03T13:49:05.381Z,58.13
2019-05-03T14:04:14.810Z,58.92
2019-05-03T14:19:25.941Z,59.68
2019-05-03T14:34:32.836Z,59.55
2019-05-03T14:49:39.788Z,60.85
2019-05-03T15:04:46.768Z,61.41
2019-05-03T15:19:54.742Z,61.51
2019-05-03T15:35:01.822Z,62.40
2019-05-03T15:50:09.244Z,60.92
2019-05-03T16:05:15.629Z,60.49
2019-05-03T16:20:22.540Z,61.68
2019-05-03T16:35:30.483Z,62.17
2019-05-03T16:50:39.167Z,62.39
2019-05-03T17:05:56.478Z,62.66
2019-05-03T17:21:03.214Z,60.61
2019-05-03T17:36:10.057Z,60.90
2019-05-03T17:51:35.115Z,62.26
2019-05-03T18:06:45.261Z,63.00
2019-05-03T18:21:52.783Z,63.39
2019-05-03T18:36:59.741Z,64.07
2019-05-03T18:52:07.011Z,64.27
2019-05-03T19:07:18.358Z,64.04
2019-05-03T19:22:25.391Z,64.34
2019-05-03T19:37:32.328Z,64.91
2019-05-03T19:52:57.144Z,65.56
2019-05-03T20:08:12.907Z,65.52
2019-05-03T20:23:39.307Z,65.93
2019-05-03T20:38:48.269Z,65.94
2019-05-03T20:53:55.350Z,66.13
2019-05-03T21:09:04.623Z,66.18
2019-05-03T21:24:14.832Z,66.40
2019-05-03T21:39:21.917Z,66.52
2019-05-03T21:54:31.487Z,66.14
2019-05-03T22:09:41.307Z,66.24
2019-05-03T22:24:50.842Z,66.53
2019-05-03T22:39:58.944Z,66.13
2019-05-03T22:55:08.334Z,68.17
2019-05-03T23:10:17.494Z,68.57
2019-05-03T23:25:25.078Z,67.69
2019-05-03T23:40:32.101Z,68.17
2019-05-03T23:55:40.539Z,68.38
